Time;durP1;ratioP1;P1;durP2;ratioP2;P2;SDS_P1;SDS_P2;PMS_P1;PMS_P2;Temp;Humidity;BMP_temperature;BMP_pressure;BME280_temperature;BME280_humidity;BME280_pressure;Samples;Min_cycle;Max_cycle;Signal;HPM_P1;HPM_P2
2022/02/06 00:00:43;;;;;;;12.00;6.40;;;;;;;2.11;67.97;101562.41;1826098;78;25782;-60
2022/02/06 00:03:11;;;;;;;13.80;6.90;;;;;;;2.06;67.99;101562.22;1825820;78;26436;-59
2022/02/06 00:05:38;;;;;;;12.35;6.65;;;;;;;1.98;67.89;101560.70;1825745;78;27460;-60
2022/02/06 00:08:11;;;;;;;10.88;6.35;;;;;;;1.91;67.68;101574.30;1800144;78;25846;-60
2022/02/06 00:10:35;;;;;;;12.45;7.28;;;;;;;1.85;67.91;101572.27;1793709;79;25485;-59
2022/02/06 00:13:03;;;;;;;15.20;7.60;;;;;;;1.77;67.94;101580.14;1794260;79;25829;-60
2022/02/06 00:15:30;;;;;;;12.55;7.37;;;;;;;1.72;68.12;101582.97;1794096;80;25712;-59
2022/02/06 00:17:56;;;;;;;13.68;7.42;;;;;;;1.65;67.81;101576.18;1794369;79;27487;-59
2022/02/06 00:20:30;;;;;;;15.60;7.22;;;;;;;1.60;67.72;101579.01;1794517;79;25454;-59
2022/02/06 00:22:56;;;;;;;10.08;6.03;;;;;;;1.54;67.85;101577.45;1793825;79;25738;-59
2022/02/06 00:25:33;;;;;;;11.45;7.33;;;;;;;1.46;68.16;101572.90;1794317;79;25850;-59
2022/02/06 00:30:43;;;;;;;11.25;6.92;;;;;;;1.31;68.02;101573.45;1796212;78;28208;-59
2022/02/06 00:33:16;;;;;;;12.90;7.05;;;;;;;1.27;68.33;101570.52;1817342;77;25442;-59
2022/02/06 00:38:11;;;;;;;10.72;6.78;;;;;;;1.22;68.91;101572.87;1825949;78;25807;-59
2022/02/06 00:40:52;;;;;;;12.30;7.10;;;;;;;1.22;68.96;101575.52;1825604;77;26009;-59
2022/02/06 00:43:01;;;;;;;12.45;7.00;;;;;;;1.23;68.99;101578.58;1816994;78;28111;-59
2022/02/06 00:45:28;;;;;;;11.12;6.37;;;;;;;1.20;69.03;101573.85;1794147;80;25493;-59
2022/02/06 00:47:55;;;;;;;9.40;6.50;;;;;;;1.20;68.95;101580.03;1794755;79;25502;-59
2022/02/06 00:50:22;;;;;;;13.45;6.53;;;;;;;1.18;68.92;101576.56;1794222;80;26482;-59
2022/02/06 00:53:02;;;;;;;12.40;6.87;;;;;;;1.18;69.21;101580.55;1794679;79;25763;-59
2022/02/06 00:55:18;;;;;;;11.85;6.28;;;;;;;1.13;68.88;101577.65;1806269;78;27467;-59
2022/02/06 00:57:45;;;;;;;11.93;6.45;;;;;;;1.12;68.85;101576.77;1827998;78;25806;-59
2022/02/06 01:00:13;;;;;;;9.93;6.50;;;;;;;1.08;68.61;101576.48;1828167;78;25754;-59
2022/02/06 01:02:40;;;;;;;10.58;6.60;;;;;;;1.05;68.56;101577.47;1828087;78;25809;-59
2022/02/06 01:05:08;;;;;;;16.25;7.17;;;;;;;1.06;68.59;101575.67;1828389;78;25765;-59
2022/02/06 01:07:36;;;;;;;11.50;7.00;;;;;;;1.02;68.49;101576.72;1828247;78;27454;-59
2022/02/06 01:10:06;;;;;;;11.38;7.03;;;;;;;1.00;68.55;101569.28;1828099;77;25713;-59
2022/02/06 01:12:34;;;;;;;9.53;6.17;;;;;;;0.97;68.88;101567.61;1805662;78;25541;-59
2022/02/06 01:15:10;;;;;;;9.98;6.92;;;;;;;0.94;68.97;101573.86;1826996;78;25800;-59
2022/02/06 01:17:39;;;;;;;11.48;8.50;;;;;;;0.95;69.27;101572.09;1827713;78;25745;-59
2022/02/06 01:20:11;;;;;;;11.68;6.55;;;;;;;1.01;69.67;101576.31;1827586;78;27540;-59
2022/02/06 01:22:35;;;;;;;13.55;7.17;;;;;;;1.07;69.76;101574.31;1827138;78;25781;-59
2022/02/06 01:25:17;;;;;;;14.05;7.22;;;;;;;1.09;69.70;101567.15;1828042;77;25485;-59
2022/02/06 01:27:56;;;;;;;11.78;6.58;;;;;;;1.09;69.80;101563.17;1827215;78;26518;-59
2022/02/06 01:30:21;;;;;;;13.72;6.83;;;;;;;1.13;69.78;101572.34;1826886;78;25441;-60
2022/02/06 01:32:57;;;;;;;11.95;6.92;;;;;;;1.22;69.89;101568.89;1827491;78;27441;-60
2022/02/06 01:35:16;;;;;;;15.50;8.20;;;;;;;1.30;69.91;101566.45;1824544;78;25770;-59
2022/02/06 01:38:08;;;;;;;11.45;6.67;;;;;;;1.33;69.75;101569.84;1827600;78;25746;-60
2022/02/06 01:41:28;;;;;;;12.55;7.70;;;;;;;1.35;69.55;101564.47;1826550;78;32216;-60
2022/02/06 01:43:11;;;;;;;14.30;8.40;;;;;;;1.35;69.33;101561.34;1788961;79;25778;-59
2022/02/06 01:45:52;;;;;;;13.62;7.03;;;;;;;1.34;69.24;101553.02;1807899;77;27463;-59
2022/02/06 02:04:35;;;;;;;17.12;7.95;;;;;;;0.90;69.09;101544.44;1786020;77;25804;-59
2022/02/06 02:15:00;;;;;;;11.60;7.08;;;;;;;0.70;69.49;101540.30;1799683;79;25700;-59
2022/02/06 02:20:16;;;;;;;12.25;7.47;;;;;;;0.66;69.52;101543.98;1799634;79;25802;-60
2022/02/06 02:22:56;;;;;;;9.95;5.90;;;;;;;0.62;69.67;101549.38;1795687;78;25594;-60
2022/02/06 02:27:53;;;;;;;10.78;6.53;;;;;;;0.55;69.70;101558.45;1842503;77;25827;-59
2022/02/06 02:33:26;;;;;;;13.05;7.78;;;;;;;0.46;69.49;101566.23;1842389;77;25860;-59
2022/02/06 02:46:22;;;;;;;11.63;6.75;;;;;;;0.14;69.11;101566.84;1800099;78;25806;-59
2022/02/06 02:48:34;;;;;;;14.38;6.33;;;;;;;0.01;69.16;101573.90;1797050;79;25636;-59
2022/02/06 02:51:05;;;;;;;11.88;7.22;;;;;;;-0.15;69.55;101577.03;1809735;77;27446;-59
2022/02/06 02:53:36;;;;;;;9.68;5.87;;;;;;;-0.18;69.91;101587.22;1821160;77;25721;-59
2022/02/06 02:56:17;;;;;;;9.85;6.65;;;;;;;-0.18;70.19;101584.58;1844748;77;25623;-59
2022/02/06 03:01:11;;;;;;;10.82;5.90;;;;;;;-0.11;70.39;101591.02;1843766;77;25762;-59
2022/02/06 03:03:38;;;;;;;8.55;5.22;;;;;;;-0.19;70.14;101592.57;1804330;79;27488;-59
2022/02/06 03:06:05;;;;;;;10.90;5.80;;;;;;;-0.24;70.15;101602.44;1804330;78;25805;-59
2022/02/06 03:08:35;;;;;;;11.05;6.05;;;;;;;-0.23;70.27;101599.73;1804670;79;25639;-58
2022/02/06 03:11:07;;;;;;;9.80;6.10;;;;;;;-0.19;70.28;101605.80;1831588;77;25755;-58
2022/02/06 03:13:40;;;;;;;9.40;5.17;;;;;;;-0.19;70.12;101603.15;1844939;77;25730;-58
2022/02/06 03:16:19;;;;;;;8.98;5.42;;;;;;;-0.19;70.02;101594.77;1844836;77;27438;-58
2022/02/06 03:18:43;;;;;;;7.58;5.42;;;;;;;-0.14;70.01;101601.69;1842885;77;25437;-58
2022/02/06 03:21:06;;;;;;;8.95;5.10;;;;;;;-0.15;69.87;101602.16;1814966;77;25826;-58
2022/02/06 03:23:37;;;;;;;10.48;6.03;;;;;;;-0.11;69.93;101600.28;1804871;79;25807;-58
2022/02/06 03:26:00;;;;;;;10.05;5.17;;;;;;;-0.06;69.94;101598.34;1802057;78;25848;-58
2022/02/06 03:28:27;;;;;;;10.00;5.40;;;;;;;-0.09;69.86;101600.64;1802802;79;27454;-58
2022/02/06 03:30:54;;;;;;;11.88;5.47;;;;;;;-0.05;70.09;101599.64;1812833;77;25489;-58
2022/02/06 03:33:21;;;;;;;9.38;5.08;;;;;;;0.00;70.16;101596.86;1845324;77;25663;-59
2022/02/06 03:35:48;;;;;;;8.38;5.20;;;;;;;0.04;70.29;101585.25;1845098;77;25969;-58
2022/02/06 03:38:15;;;;;;;7.70;4.95;;;;;;;0.07;70.24;101590.89;1844983;77;25630;-58
2022/02/06 03:40:51;;;;;;;8.55;6.05;;;;;;;0.07;70.19;101593.09;1842827;77;27505;-58
2022/02/06 03:43:22;;;;;;;9.83;5.70;;;;;;;0.09;70.11;101597.86;1808914;79;25749;-58
2022/02/06 03:45:48;;;;;;;8.05;5.42;;;;;;;0.09;69.84;101602.30;1821955;77;25742;-58
2022/02/06 03:48:15;;;;;;;10.13;5.60;;;;;;;0.07;69.94;101605.44;1844331;77;26592;-58
2022/02/06 03:50:46;;;;;;;9.73;5.83;;;;;;;0.08;70.17;101604.53;1844611;77;25693;-58
2022/02/06 03:53:11;;;;;;;6.85;5.03;;;;;;;0.08;69.96;101603.20;1844043;77;27492;-58
2022/02/06 03:55:37;;;;;;;11.25;6.03;;;;;;;0.11;69.97;101604.45;1833213;77;25728;-58
2022/02/06 03:58:04;;;;;;;8.73;5.85;;;;;;;0.10;69.92;101610.66;1804948;78;25724;-58
2022/02/06 04:00:31;;;;;;;8.95;5.55;;;;;;;0.07;69.70;101595.74;1805434;79;25460;-58
2022/02/06 04:02:58;;;;;;;10.50;5.65;;;;;;;0.04;69.67;101605.09;1804634;79;25788;-59
2022/02/06 04:05:24;;;;;;;8.05;4.92;;;;;;;0.01;69.58;101603.00;1841375;77;27436;-59
2022/02/06 04:07:52;;;;;;;9.10;5.05;;;;;;;0.01;69.89;101609.14;1845031;77;25762;-58
2022/02/06 04:10:19;;;;;;;10.10;5.92;;;;;;;-0.10;69.62;101612.13;1845240;77;25800;-58
2022/02/06 04:12:49;;;;;;;12.20;6.05;;;;;;;-0.14;69.71;101617.12;1837254;77;25814;-58
2022/02/06 04:15:26;;;;;;;8.20;5.08;;;;;;;-0.19;69.69;101610.64;1844962;77;25623;-59
2022/02/06 04:18:06;;;;;;;9.85;5.58;;;;;;;-0.23;69.96;101617.39;1844763;77;28170;-58
2022/02/06 04:20:19;;;;;;;12.25;6.22;;;;;;;-0.27;70.12;101625.84;1842318;77;26149;-59
2022/02/06 04:22:46;;;;;;;9.15;6.50;;;;;;;-0.23;70.33;101627.97;1843890;77;26316;-59
2022/02/06 04:25:13;;;;;;;10.40;6.50;;;;;;;-0.20;70.37;101634.47;1845361;77;26479;-59
2022/02/06 04:27:40;;;;;;;9.25;5.83;;;;;;;-0.16;70.47;101638.30;1844751;77;26282;-59
2022/02/06 04:30:09;;;;;;;15.10;7.83;;;;;;;-0.10;70.51;101631.11;1844964;77;27509;-59
2022/02/06 04:32:35;;;;;;;10.80;6.30;;;;;;;-0.04;70.68;101626.95;1844822;77;25804;-59
2022/02/06 04:35:04;;;;;;;12.68;7.97;;;;;;;0.03;70.66;101623.66;1844198;77;25787;-59
2022/02/06 04:37:39;;;;;;;12.58;7.33;;;;;;;0.08;70.60;101625.27;1844935;77;25781;-58
2022/02/06 04:45:31;;;;;;;12.45;8.28;;;;;;;0.25;70.46;101617.24;1804786;78;25742;-58
2022/02/06 05:14:23;;;;;;;14.33;7.83;;;;;;;0.56;70.28;101618.44;1798885;78;25750;-60
2022/02/06 05:22:05;;;;;;;15.30;7.97;;;;;;;0.60;69.72;101612.58;1809356;78;27491;-60
2022/02/06 05:32:36;;;;;;;11.57;7.37;;;;;;;0.71;69.39;101617.50;1828280;78;25765;-58
2022/02/06 05:35:01;;;;;;;14.28;7.80;;;;;;;0.70;69.37;101617.98;1827858;78;27456;-58
2022/02/06 05:37:28;;;;;;;17.32;7.62;;;;;;;0.72;69.49;101621.41;1828038;78;25958;-62
2022/02/06 05:39:56;;;;;;;12.98;7.22;;;;;;;0.73;69.32;101622.30;1828572;78;25649;-58
2022/02/06 05:42:23;;;;;;;12.07;8.23;;;;;;;0.77;69.40;101627.44;1801563;78;25777;-59
2022/02/06 05:44:55;;;;;;;17.73;8.33;;;;;;;0.80;69.27;101624.29;1797255;79;26092;-59
2022/02/06 05:47:24;;;;;;;12.65;7.75;;;;;;;0.82;69.32;101625.08;1804667;79;28164;-59
2022/02/06 05:49:52;;;;;;;13.93;6.85;;;;;;;0.82;69.17;101619.34;1809743;79;25810;-59
2022/02/06 05:52:20;;;;;;;12.18;7.70;;;;;;;0.80;69.08;101623.81;1810052;79;25742;-59
2022/02/06 05:54:48;;;;;;;13.00;7.53;;;;;;;0.73;69.00;101623.63;1821465;77;25787;-59
2022/02/06 05:57:15;;;;;;;13.72;7.28;;;;;;;0.67;68.92;101626.48;1844865;77;25762;-59
2022/02/06 05:59:41;;;;;;;17.92;8.28;;;;;;;0.61;68.96;101617.81;1844948;77;27326;-58
2022/02/06 06:02:08;;;;;;;20.20;10.58;;;;;;;0.56;68.88;101618.88;1842196;77;25782;-58
2022/02/06 06:04:35;;;;;;;14.53;8.00;;;;;;;0.50;68.96;101615.97;1844758;77;25738;-59
2022/02/06 06:07:04;;;;;;;12.95;6.58;;;;;;;0.42;69.10;101615.36;1844959;77;25786;-59
2022/02/06 06:09:31;;;;;;;11.57;6.60;;;;;;;0.37;69.17;101620.80;1829545;77;25725;-58
2022/02/06 06:11:58;;;;;;;13.08;7.17;;;;;;;0.31;69.22;101614.39;1799887;79;27437;-59
2022/02/06 06:14:28;;;;;;;11.08;6.67;;;;;;;0.28;69.29;101619.33;1799731;79;25792;-58
2022/02/06 06:16:55;;;;;;;10.88;6.83;;;;;;;0.26;69.40;101621.62;1799612;79;25714;-59
2022/02/06 06:19:23;;;;;;;12.00;7.30;;;;;;;0.25;69.52;101617.24;1802959;79;25765;-59
2022/02/06 06:21:55;;;;;;;11.00;7.17;;;;;;;0.23;69.60;101617.27;1808286;79;26417;-59
2022/02/06 06:24:24;;;;;;;11.75;6.97;;;;;;;0.18;69.46;101623.18;1795537;79;27438;-59
2022/02/06 06:26:52;;;;;;;10.35;7.37;;;;;;;0.14;69.20;101620.20;1796502;79;25802;-59
2022/02/06 06:29:19;;;;;;;16.90;7.55;;;;;;;0.09;69.21;101621.67;1832172;77;25796;-58
2022/02/06 06:31:47;;;;;;;12.30;7.65;;;;;;;0.01;68.87;101616.23;1845158;77;25771;-59
2022/02/06 06:34:13;;;;;;;12.13;7.45;;;;;;;-0.04;69.19;101614.58;1845637;77;25910;-59
2022/02/06 06:36:41;;;;;;;13.43;7.53;;;;;;;0.06;69.61;101616.94;1844947;77;27471;-59
2022/02/06 06:39:09;;;;;;;12.95;7.42;;;;;;;0.16;69.71;101619.70;1845064;77;25809;-58
2022/02/06 06:41:36;;;;;;;13.68;7.00;;;;;;;0.16;69.36;101609.13;1829949;77;25709;-59
2022/02/06 06:44:04;;;;;;;17.92;8.68;;;;;;;0.12;69.13;101622.06;1810447;79;26128;-58
2022/02/06 06:46:31;;;;;;;12.80;8.03;;;;;;;0.06;69.10;101621.79;1801957;78;26432;-59
2022/02/06 06:48:58;;;;;;;10.88;7.53;;;;;;;0.03;69.41;101622.34;1801774;78;27558;-58
2022/02/06 06:51:25;;;;;;;15.90;9.08;;;;;;;0.05;69.61;101623.14;1833844;78;25797;-59
2022/02/06 06:53:52;;;;;;;12.98;7.62;;;;;;;0.09;69.65;101619.50;1834177;78;25737;-59
2022/02/06 06:56:30;;;;;;;14.23;8.28;;;;;;;0.16;69.75;101628.97;1834210;77;25771;-59
2022/02/06 06:58:51;;;;;;;12.85;8.35;;;;;;;0.20;69.83;101617.39;1831770;78;25766;-59
2022/02/06 07:03:46;;;;;;;15.35;9.23;;;;;;;0.31;69.84;101612.59;1796730;79;25695;-59
2022/02/06 07:06:14;;;;;;;15.08;9.03;;;;;;;0.38;69.85;101612.42;1798327;79;25755;-59
2022/02/06 07:08:41;;;;;;;12.78;8.40;;;;;;;0.42;69.70;101609.63;1776691;79;25815;-59
2022/02/06 07:11:08;;;;;;;13.85;8.55;;;;;;;0.49;69.78;101614.70;1799680;79;27299;-59
2022/02/06 07:13:35;;;;;;;15.03;9.40;;;;;;;0.56;69.80;101609.61;1814877;78;27479;-59
2022/02/06 07:16:02;;;;;;;17.98;10.00;;;;;;;0.64;69.91;101607.57;1828612;78;25786;-59
2022/02/06 07:18:29;;;;;;;17.10;8.25;;;;;;;0.70;69.86;101602.53;1828277;77;25663;-59
2022/02/06 07:20:56;;;;;;;15.85;9.53;;;;;;;0.73;69.39;101613.03;1828374;78;25694;-59
2022/02/06 07:23:24;;;;;;;15.53;8.25;;;;;;;0.83;68.37;101605.63;1828111;78;25805;-59
2022/02/06 07:25:53;;;;;;;16.30;9.08;;;;;;;0.94;68.17;101606.97;1807314;77;27506;-58
2022/02/06 07:28:20;;;;;;;15.40;7.92;;;;;;;1.07;66.75;101598.61;1799119;79;25461;-59
2022/02/06 07:30:47;;;;;;;16.05;9.03;;;;;;;1.18;67.03;101603.52;1798721;79;25465;-59
2022/02/06 07:33:19;;;;;;;13.90;8.23;;;;;;;1.30;66.73;101606.20;1831233;78;25775;-59
2022/02/06 07:35:44;;;;;;;16.40;8.88;;;;;;;1.44;65.44;101605.23;1833656;78;25630;-58
2022/02/06 07:38:14;;;;;;;13.00;6.87;;;;;;;1.56;63.99;101596.83;1833998;78;27470;-58
2022/02/06 07:40:42;;;;;;;14.07;6.53;;;;;;;1.72;62.07;101601.06;1833632;77;25709;-59
2022/02/06 07:43:10;;;;;;;14.80;6.37;;;;;;;1.85;62.29;101601.45;1834045;78;25384;-58
2022/02/06 07:45:40;;;;;;;11.43;6.47;;;;;;;2.01;60.04;101601.73;1836537;77;25823;-58
2022/02/06 07:48:09;;;;;;;11.68;6.42;;;;;;;2.15;59.65;101587.06;1842901;77;25938;-58
2022/02/06 07:50:36;;;;;;;10.90;5.83;;;;;;;2.29;58.78;101591.78;1840799;77;27454;-58
2022/02/06 07:53:03;;;;;;;9.68;5.37;;;;;;;2.42;56.53;101592.17;1834058;77;25868;-58
2022/02/06 07:55:30;;;;;;;12.33;6.97;;;;;;;2.54;56.52;101590.80;1833421;77;25710;-58
2022/02/06 07:57:58;;;;;;;13.78;7.08;;;;;;;2.63;58.04;101593.92;1803187;78;26492;-58
2022/02/06 08:00:25;;;;;;;13.30;6.53;;;;;;;2.74;57.34;101592.13;1808075;78;25691;-58
2022/02/06 08:02:51;;;;;;;10.68;5.65;;;;;;;2.82;57.35;101576.72;1791741;80;27432;-58
2022/02/06 08:05:19;;;;;;;13.03;5.85;;;;;;;2.96;58.01;101580.58;1798280;79;25488;-58
2022/02/06 08:07:47;;;;;;;11.00;6.45;;;;;;;3.04;56.01;101575.79;1797920;79;25727;-58
2022/02/06 08:10:14;;;;;;;12.78;5.85;;;;;;;3.17;55.83;101580.58;1794430;79;25845;-58
2022/02/06 08:12:51;;;;;;;12.85;5.47;;;;;;;3.24;54.74;101582.87;1808215;79;25778;-58
2022/02/06 08:15:10;;;;;;;11.75;5.92;;;;;;;3.37;54.22;101579.19;1824790;77;27483;-58
2022/02/06 08:17:40;;;;;;;13.85;6.05;;;;;;;3.52;53.64;101576.78;1835472;77;25761;-59
2022/02/06 08:20:11;;;;;;;9.40;5.72;;;;;;;3.65;54.70;101569.09;1844587;77;25782;-59
2022/02/06 08:22:38;;;;;;;11.10;6.33;;;;;;;3.76;54.92;101558.81;1844850;77;26596;-58
2022/02/06 08:25:08;;;;;;;12.82;6.28;;;;;;;3.91;55.22;101565.18;1823761;77;25846;-58
2022/02/06 08:27:35;;;;;;;18.52;9.68;;;;;;;4.07;53.83;101560.87;1809885;78;27442;-59
2022/02/06 08:30:04;;;;;;;14.93;6.95;;;;;;;4.22;53.12;101563.70;1805425;77;26049;-59
2022/02/06 08:32:32;;;;;;;13.90;5.08;;;;;;;4.35;52.68;101563.47;1812054;79;25742;-59
2022/02/06 08:35:00;;;;;;;10.20;4.83;;;;;;;4.54;50.77;101568.77;1811795;79;25775;-60
2022/02/06 08:37:27;;;;;;;11.95;5.45;;;;;;;4.68;51.67;101561.85;1811804;79;25443;-59
2022/02/06 08:39:54;;;;;;;10.13;5.22;;;;;;;4.84;50.70;101554.78;1807653;79;28357;-59
2022/02/06 08:42:22;;;;;;;11.03;4.58;;;;;;;5.00;51.01;101552.19;1833141;77;25775;-59
2022/02/06 08:44:48;;;;;;;8.95;5.60;;;;;;;5.20;50.50;101553.42;1844939;77;25686;-59
2022/02/06 08:47:18;;;;;;;14.95;4.83;;;;;;;5.39;47.96;101549.28;1844919;77;25805;-59
2022/02/06 08:49:46;;;;;;;9.60;4.22;;;;;;;5.48;48.76;101538.95;1845081;77;25645;-59
2022/02/06 08:52:13;;;;;;;7.78;3.98;;;;;;;5.69;46.46;101536.05;1842902;77;28253;-59
2022/02/06 08:54:41;;;;;;;6.87;4.53;;;;;;;5.81;48.70;101526.48;1844812;77;25720;-59
2022/02/06 08:57:25;;;;;;;9.65;4.30;;;;;;;6.03;47.41;101533.32;1845044;77;25460;-59
2022/02/06 08:59:52;;;;;;;8.68;3.30;;;;;;;6.24;45.42;101527.20;1844640;77;25860;-59
2022/02/06 09:02:19;;;;;;;9.88;3.62;;;;;;;6.41;44.33;101531.09;1844840;77;25770;-59
2022/02/06 09:04:46;;;;;;;5.97;3.27;;;;;;;6.62;43.58;101526.76;1844535;77;27506;-59
2022/02/06 09:07:13;;;;;;;11.00;5.22;;;;;;;6.79;41.88;101540.43;1841077;77;25737;-59
2022/02/06 09:09:46;;;;;;;7.12;3.55;;;;;;;6.96;43.53;101523.37;1831833;77;25776;-59
2022/02/06 09:12:11;;;;;;;6.17;3.52;;;;;;;7.18;43.07;101525.58;1821440;77;26545;-59
2022/02/06 09:14:38;;;;;;;7.00;3.25;;;;;;;7.46;42.04;101523.84;1812479;77;25761;-59
2022/02/06 09:17:09;;;;;;;9.60;3.70;;;;;;;7.79;41.13;101509.23;1809994;79;27398;-60
2022/02/06 09:19:39;;;;;;;10.53;3.90;;;;;;;8.45;41.42;101505.80;1824919;77;25681;-59
2022/02/06 09:22:08;;;;;;;8.68;4.37;;;;;;;9.43;40.45;101496.38;1844512;77;25764;-59
2022/02/06 09:24:37;;;;;;;9.48;4.30;;;;;;;10.15;38.60;101487.51;1844713;77;25786;-59
2022/02/06 09:27:05;;;;;;;8.53;4.20;;;;;;;10.79;38.56;101483.56;1844866;77;25761;-59
2022/02/06 09:29:32;;;;;;;12.65;4.25;;;;;;;11.53;35.25;101475.47;1838246;77;27435;-59
2022/02/06 09:37:09;;;;;;;9.80;2.80;;;;;;;12.66;31.92;101464.23;1790256;79;26938;-60
2022/02/06 09:39:42;;;;;;;7.33;3.02;;;;;;;12.81;31.97;101456.64;1790927;80;25731;-60
2022/02/06 09:42:10;;;;;;;10.23;3.30;;;;;;;13.12;32.32;101453.08;1799129;78;27517;-60
2022/02/06 09:44:37;;;;;;;9.23;3.75;;;;;;;13.59;31.89;101463.34;1797818;79;25750;-60
2022/02/06 09:47:06;;;;;;;8.88;3.58;;;;;;;13.90;31.44;101450.58;1811821;79;26366;-60
2022/02/06 09:49:33;;;;;;;5.70;3.27;;;;;;;14.10;29.54;101457.35;1823724;77;25793;-60
2022/02/06 09:52:00;;;;;;;4.70;3.05;;;;;;;14.23;29.32;101451.17;1799657;79;25457;-59
2022/02/06 09:54:29;;;;;;;7.20;3.58;;;;;;;14.75;28.20;101452.66;1804128;79;28211;-60
2022/02/06 09:56:59;;;;;;;6.75;3.35;;;;;;;15.08;28.50;101444.14;1804935;79;25582;-60
2022/02/06 09:59:27;;;;;;;6.47;2.95;;;;;;;15.40;30.01;101449.12;1804573;78;25714;-60
2022/02/06 10:01:57;;;;;;;6.50;3.27;;;;;;;15.88;27.66;101439.45;1800259;79;25782;-60
2022/02/06 10:04:27;;;;;;;8.93;3.70;;;;;;;16.16;27.37;101434.81;1796292;78;25759;-60
2022/02/06 10:07:05;;;;;;;4.45;2.72;;;;;;;16.50;26.71;101423.67;1791686;80;27471;-60
2022/02/06 10:09:56;;;;;;;7.80;3.47;;;;;;;16.52;24.87;101417.58;1803089;78;25740;-60
2022/02/06 10:12:24;;;;;;;7.70;3.05;;;;;;;16.37;26.24;101413.23;1832611;78;25813;-60
2022/02/06 10:14:52;;;;;;;10.53;3.50;;;;;;;16.86;24.56;101399.09;1795467;78;25750;-60
2022/02/06 10:17:23;;;;;;;6.12;2.83;;;;;;;17.21;24.37;101395.91;1792891;78;25767;-60
2022/02/06 10:19:53;;;;;;;3.37;2.30;;;;;;;17.48;23.98;101394.77;1798322;78;27452;-60
2022/02/06 10:22:50;;;;;;;11.00;3.40;;;;;;;17.29;24.76;101374.66;1797023;79;25707;-60
2022/02/06 10:25:11;;;;;;;5.92;3.55;;;;;;;17.29;24.76;101374.66;1790890;79;26388;-60
2022/02/06 10:28:01;;;;;;;3.98;2.80;;;;;;;17.83;25.31;101373.73;1772125;80;26328;-60
2022/02/06 10:30:43;;;;;;;6.87;2.72;;;;;;;18.17;22.42;101383.27;1793894;79;26338;-60
2022/02/06 10:33:18;;;;;;;7.75;2.80;;;;;;;18.18;23.87;101364.06;1794372;80;27529;-60
2022/02/06 10:35:54;;;;;;;7.65;2.05;;;;;;;18.19;21.39;101374.43;1806528;78;25731;-60
2022/02/06 10:38:25;;;;;;;13.38;2.92;;;;;;;18.29;22.65;101356.88;1833333;77;25721;-60
2022/02/06 10:41:22;;;;;;;14.73;2.77;;;;;;;18.54;24.38;101359.56;1845370;77;25732;-60
2022/02/06 10:44:06;;;;;;;4.70;2.90;;;;;;;18.94;23.60;101354.17;1844529;77;26015;-60
2022/02/06 10:46:47;;;;;;;5.08;2.90;;;;;;;19.34;20.91;101359.58;1837953;77;27446;-60
2022/02/06 10:49:17;;;;;;;6.40;3.22;;;;;;;19.32;21.75;101355.64;1818600;78;25819;-60
2022/02/06 10:51:51;;;;;;;7.97;2.20;;;;;;;19.13;21.20;101352.03;1793782;79;25680;-60
2022/02/06 10:54:32;;;;;;;5.35;2.72;;;;;;;19.18;20.81;101361.88;1802084;78;25791;-60
2022/02/06 10:57:13;;;;;;;5.05;2.80;;;;;;;18.84;20.16;101359.78;1822229;78;25482;-61
2022/02/06 10:59:51;;;;;;;8.28;2.50;;;;;;;18.34;21.79;101341.90;1822905;78;26721;-60
2022/02/06 11:02:29;;;;;;;5.95;2.70;;;;;;;18.39;21.38;101345.80;1808893;78;25731;-60
2022/02/06 11:05:12;;;;;;;4.60;2.67;;;;;;;18.63;20.29;101327.67;1791825;80;25458;-60
2022/02/06 11:07:35;;;;;;;5.83;2.95;;;;;;;18.69;21.60;101319.31;1793445;79;26330;-60
2022/02/06 11:10:12;;;;;;;6.05;2.98;;;;;;;18.97;22.26;101320.24;1792311;79;25824;-60
2022/02/06 11:12:52;;;;;;;8.53;2.85;;;;;;;19.21;19.78;101303.73;1794264;79;27424;-60
2022/02/06 11:15:41;;;;;;;13.50;2.95;;;;;;;18.98;19.73;101313.77;1792001;79;25766;-60
2022/02/06 11:18:16;;;;;;;8.48;2.77;;;;;;;18.63;20.41;101306.41;1794110;80;25774;-60
2022/02/06 11:21:00;;;;;;;4.30;2.77;;;;;;;18.57;21.23;101316.97;1791331;78;25785;-61
2022/02/06 11:23:44;;;;;;;5.75;3.22;;;;;;;18.90;20.42;101311.89;1823093;78;25780;-60
2022/02/06 11:26:17;;;;;;;4.05;2.50;;;;;;;18.77;20.45;101315.19;1800052;78;27474;-60
2022/02/06 11:28:46;;;;;;;7.25;3.25;;;;;;;19.00;21.21;101305.73;1794926;79;44296;-60
2022/02/06 11:31:17;;;;;;;5.03;2.70;;;;;;;19.12;20.01;101303.97;1818989;78;25469;-60
2022/02/06 11:33:45;;;;;;;3.85;2.45;;;;;;;18.92;19.41;101304.39;1824331;78;26494;-60
2022/02/06 11:36:19;;;;;;;5.53;2.65;;;;;;;18.91;19.67;101295.88;1825871;78;25746;-60
2022/02/06 11:45:03;;;;;;;7.80;2.90;;;;;;;18.22;20.14;101286.95;1802837;78;25703;-60
2022/02/06 11:47:48;;;;;;;7.20;2.33;;;;;;;17.72;20.81;101277.98;1803718;78;25870;-60
2022/02/06 11:50:16;;;;;;;7.90;2.90;;;;;;;17.62;21.64;101277.65;1827123;78;25777;-60
2022/02/06 11:53:06;;;;;;;11.50;3.00;;;;;;;17.64;20.46;101278.33;1802521;78;28127;-59
2022/02/06 11:55:44;;;;;;;7.33;2.75;;;;;;;17.23;21.21;101261.98;1794285;79;25767;-60
2022/02/06 11:58:34;;;;;;;10.08;3.02;;;;;;;16.88;21.08;101264.80;1794222;79;26426;-60
2022/02/06 12:01:15;;;;;;;7.62;3.27;;;;;;;16.56;21.39;101256.02;1810662;78;26104;-59
2022/02/06 12:03:55;;;;;;;9.48;3.33;;;;;;;16.18;22.06;101256.34;1825778;78;25771;-60
2022/02/06 12:06:39;;;;;;;9.43;3.30;;;;;;;16.03;22.71;101249.81;1799378;78;28173;-60
2022/02/06 12:09:12;;;;;;;7.42;2.95;;;;;;;16.00;22.63;101251.52;1814110;78;25475;-60
2022/02/06 12:11:40;;;;;;;4.35;2.67;;;;;;;15.44;22.65;101247.16;1815972;78;25683;-60
2022/02/06 12:14:21;;;;;;;4.87;2.80;;;;;;;15.36;23.04;101239.48;1815938;78;25783;-59
2022/02/06 12:17:44;;;;;;;7.90;2.62;;;;;;;15.14;23.41;101233.52;1828350;77;26131;-59
2022/02/06 12:20:07;;;;;;;5.75;3.55;;;;;;;14.77;23.47;101245.33;1818062;78;28209;-59
2022/02/06 12:22:48;;;;;;;10.05;3.40;;;;;;;14.67;23.11;101219.67;1820410;78;25889;-59
2022/02/06 12:25:34;;;;;;;9.93;3.15;;;;;;;14.21;24.06;101224.98;1811066;78;25749;-59
2022/02/06 12:28:20;;;;;;;9.05;3.50;;;;;;;14.19;24.34;101219.73;1794300;79;26554;-59
2022/02/06 12:30:52;;;;;;;4.45;2.90;;;;;;;14.00;24.41;101226.09;1794402;80;25766;-59
2022/02/06 12:33:33;;;;;;;8.85;3.52;;;;;;;13.92;24.77;101216.51;1794059;79;27394;-59
2022/02/06 12:38:44;;;;;;;6.67;3.45;;;;;;;13.88;24.43;101224.06;1794471;79;25822;-59
2022/02/06 12:41:26;;;;;;;3.92;2.98;;;;;;;13.67;24.48;101230.15;1794366;78;25806;-59
2022/02/06 12:43:56;;;;;;;6.25;3.70;;;;;;;13.39;24.95;101230.91;1795143;78;26947;-59
2022/02/06 12:46:25;;;;;;;5.25;2.92;;;;;;;13.41;25.33;101216.73;1825799;78;27567;-59
2022/02/06 12:48:59;;;;;;;9.60;4.08;;;;;;;13.27;25.13;101212.59;1828012;78;25785;-59
2022/02/06 12:51:31;;;;;;;14.43;3.27;;;;;;;12.97;25.50;101217.16;1824917;77;25514;-59
2022/02/06 12:54:10;;;;;;;13.62;3.22;;;;;;;12.75;25.71;101191.27;1828092;78;25777;-59
2022/02/06 12:56:39;;;;;;;4.72;2.85;;;;;;;12.56;26.43;101197.47;1814851;78;25682;-59
2022/02/06 12:59:09;;;;;;;5.10;2.50;;;;;;;12.68;25.31;101184.73;1824405;78;27436;-59
2022/02/06 13:01:40;;;;;;;9.00;3.60;;;;;;;13.00;24.67;101173.64;1811195;78;25787;-59
2022/02/06 13:04:10;;;;;;;4.30;2.47;;;;;;;13.05;24.75;101174.56;1814343;78;25754;-59
2022/02/06 13:06:46;;;;;;;9.68;2.52;;;;;;;13.17;24.62;101164.97;1818697;78;26555;-59
2022/02/06 13:09:33;;;;;;;3.85;2.50;;;;;;;13.27;24.84;101162.61;1824889;77;25765;-59
2022/02/06 13:12:39;;;;;;;9.28;2.67;;;;;;;13.37;25.12;101165.79;1819877;77;27482;-59
2022/02/06 13:15:38;;;;;;;6.42;3.08;;;;;;;13.31;24.98;101139.72;1807191;78;25911;-59
2022/02/06 13:18:16;;;;;;;7.90;2.45;;;;;;;13.11;24.98;101149.70;1816859;78;25765;-59
2022/02/06 13:20:53;;;;;;;4.20;2.15;;;;;;;12.61;24.95;101147.12;1810805;78;25801;-59
2022/02/06 13:23:18;;;;;;;11.93;2.62;;;;;;;12.14;25.27;101143.70;1813212;77;25707;-59
2022/02/06 13:26:06;;;;;;;4.53;2.15;;;;;;;11.89;25.83;101139.12;1817958;78;27463;-59
2022/02/06 13:34:16;;;;;;;5.70;2.20;;;;;;;11.42;26.20;101142.30;1811331;78;25822;-60
2022/02/06 13:36:40;;;;;;;3.75;1.98;;;;;;;11.25;26.24;101149.97;1796390;79;25758;-59
2022/02/06 13:39:12;;;;;;;7.97;2.33;;;;;;;11.05;26.46;101142.25;1816547;78;27507;-59